Time;durP1;ratioP1;P1;durP2;ratioP2;P2;SDS_P1;SDS_P2;PMS_P1;PMS_P2;Temp;Humidity;BMP_temperature;BMP_pressure;BME280_temperature;BME280_humidity;BME280_pressure;Samples;Min_cycle;Max_cycle;Signal;HPM_P1;HPM_P2
2023/06/30 00:02:06;;;;;;;14.80;8.55;;;19.90;99.90;;;;;;5030247;28;20025;-71
2023/06/30 00:04:32;;;;;;;12.38;7.80;;;19.80;99.90;;;;;;5032161;28;20075;-74
2023/06/30 00:06:59;;;;;;;14.20;7.80;;;19.80;99.90;;;;;;5029581;28;20033;-75
2023/06/30 00:09:25;;;;;;;13.07;7.82;;;19.80;99.90;;;;;;5030205;28;20460;-75
2023/06/30 00:11:55;;;;;;;12.93;9.20;;;19.80;99.90;;;;;;5029315;28;20483;-73
2023/06/30 00:14:21;;;;;;;15.60;9.02;;;19.80;99.90;;;;;;5027452;28;20065;-74
2023/06/30 00:16:50;;;;;;;14.93;8.38;;;19.80;99.90;;;;;;5017388;28;20029;-74
2023/06/30 00:19:17;;;;;;;15.07;8.50;;;19.80;99.90;;;;;;5029882;28;20029;-74
2023/06/30 00:21:43;;;;;;;11.15;8.32;;;19.90;99.90;;;;;;5013512;28;20060;-75
2023/06/30 00:24:10;;;;;;;13.40;8.50;;;19.80;99.90;;;;;;5049591;28;20045;-75
2023/06/30 00:26:37;;;;;;;12.85;8.73;;;19.70;99.90;;;;;;5032777;28;20111;-73
2023/06/30 00:29:03;;;;;;;17.83;8.93;;;19.50;99.90;;;;;;5009713;28;20040;-75
2023/06/30 00:31:28;;;;;;;13.65;8.63;;;19.50;99.90;;;;;;5023145;28;20104;-71
2023/06/30 00:33:55;;;;;;;11.60;8.30;;;19.40;99.90;;;;;;5029704;28;20025;-74
2023/06/30 00:36:21;;;;;;;12.30;8.63;;;19.40;99.90;;;;;;5029343;28;20429;-76
2023/06/30 00:38:46;;;;;;;15.77;8.23;;;19.40;99.90;;;;;;5027424;28;20037;-75
2023/06/30 00:41:13;;;;;;;9.30;7.25;;;19.40;99.90;;;;;;5044287;28;20037;-76
2023/06/30 00:43:38;;;;;;;12.35;8.20;;;19.40;99.90;;;;;;5041842;28;20040;-74
2023/06/30 00:46:09;;;;;;;16.20;9.02;;;19.40;99.90;;;;;;5022661;28;20392;-73
2023/06/30 00:48:35;;;;;;;15.27;8.77;;;19.40;99.90;;;;;;5023975;28;20552;-76
2023/06/30 00:51:00;;;;;;;16.13;8.77;;;19.30;99.90;;;;;;5015317;28;20041;-75
2023/06/30 00:53:26;;;;;;;13.05;8.57;;;19.10;99.90;;;;;;5027896;28;20022;-72
2023/06/30 00:55:52;;;;;;;12.80;9.07;;;19.00;99.90;;;;;;5027832;28;20470;-73
2023/06/30 00:58:17;;;;;;;17.30;9.05;;;19.00;99.90;;;;;;5033241;28;20033;-74
2023/06/30 01:00:44;;;;;;;17.30;8.95;;;19.00;99.90;;;;;;5026557;28;20021;-74
2023/06/30 01:03:42;;;;;;;14.68;9.18;;;18.90;99.90;;;;;;5027150;28;20034;-76
2023/06/30 01:06:38;;;;;;;13.00;8.75;;;18.80;99.90;;;;;;4972286;28;20041;-75
2023/06/30 01:09:12;;;;;;;19.08;9.70;;;18.80;99.90;;;;;;5026013;28;20048;-76
2023/06/30 01:11:39;;;;;;;14.65;9.07;;;18.70;99.90;;;;;;5015663;28;20088;-74
2023/06/30 01:14:06;;;;;;;13.07;9.23;;;18.60;99.90;;;;;;5030605;28;20096;-75
2023/06/30 01:16:33;;;;;;;13.63;9.05;;;18.70;99.90;;;;;;5019522;28;20083;-71
2023/06/30 01:19:01;;;;;;;13.85;9.35;;;18.60;99.90;;;;;;5036534;28;20543;-74
2023/06/30 01:21:28;;;;;;;12.35;8.70;;;18.70;99.90;;;;;;5021172;28;20061;-73
2023/06/30 01:24:02;;;;;;;18.63;9.18;;;18.70;99.90;;;;;;5022128;28;20030;-74
2023/06/30 01:26:30;;;;;;;17.73;9.98;;;18.60;99.90;;;;;;5026684;28;20080;-73
2023/06/30 01:28:57;;;;;;;14.38;9.07;;;18.50;99.90;;;;;;5026037;28;20044;-75
2023/06/30 01:31:22;;;;;;;13.15;9.20;;;18.40;99.90;;;;;;5012036;28;20022;-74
2023/06/30 01:33:48;;;;;;;16.15;9.85;;;18.40;99.90;;;;;;5029696;28;20021;-76
2023/06/30 01:36:14;;;;;;;16.17;9.63;;;18.40;99.90;;;;;;5019914;28;20041;-74
2023/06/30 01:38:40;;;;;;;16.17;9.52;;;18.40;99.90;;;;;;5016316;28;20282;-74
2023/06/30 01:41:08;;;;;;;17.92;9.38;;;18.30;99.90;;;;;;5010174;28;20037;-75
2023/06/30 01:43:35;;;;;;;16.83;9.45;;;18.30;99.90;;;;;;5028529;28;20021;-75
2023/06/30 01:46:01;;;;;;;16.00;8.98;;;18.20;99.90;;;;;;5028514;28;20519;-74
2023/06/30 01:48:28;;;;;;;17.52;9.73;;;18.20;99.90;;;;;;5027527;28;20030;-74
2023/06/30 01:50:55;;;;;;;14.35;9.77;;;18.10;99.90;;;;;;5019393;28;20217;-75
2023/06/30 01:53:21;;;;;;;14.13;9.68;;;18.10;99.90;;;;;;5048792;28;20430;-74
2023/06/30 01:55:47;;;;;;;14.13;9.95;;;18.10;99.90;;;;;;5051554;28;20099;-77
2023/06/30 01:58:13;;;;;;;17.05;10.07;;;18.20;99.90;;;;;;5048932;28;20145;-76
2023/06/30 02:00:39;;;;;;;18.02;10.93;;;18.20;99.90;;;;;;5014697;28;20475;-75
2023/06/30 02:03:05;;;;;;;13.13;9.68;;;18.20;99.90;;;;;;5029614;28;20025;-75
2023/06/30 02:05:30;;;;;;;16.50;9.40;;;18.10;99.90;;;;;;5032266;28;20038;-74
2023/06/30 02:07:56;;;;;;;16.58;9.63;;;18.00;99.90;;;;;;5017463;28;20462;-75
2023/06/30 02:10:22;;;;;;;13.35;9.88;;;18.00;99.90;;;;;;5040139;28;20386;-75
2023/06/30 02:12:47;;;;;;;18.38;9.80;;;17.90;99.90;;;;;;5019955;28;20033;-75
2023/06/30 02:15:13;;;;;;;13.05;9.40;;;17.80;99.90;;;;;;5031964;28;20044;-76
2023/06/30 02:17:40;;;;;;;14.10;9.73;;;17.80;99.90;;;;;;5031289;28;20101;-75
2023/06/30 02:20:06;;;;;;;13.80;10.25;;;17.80;99.90;;;;;;5008592;28;20029;-76
2023/06/30 02:22:32;;;;;;;16.40;9.82;;;17.60;99.90;;;;;;5028003;28;20022;-72
2023/06/30 02:24:58;;;;;;;14.77;9.38;;;17.50;99.90;;;;;;5029179;28;20029;-75
2023/06/30 02:27:25;;;;;;;15.65;10.05;;;17.50;99.90;;;;;;5016695;28;20381;-74
2023/06/30 02:29:51;;;;;;;16.02;10.10;;;17.50;99.90;;;;;;5029061;28;20124;-73
2023/06/30 02:32:17;;;;;;;12.05;9.25;;;17.60;99.90;;;;;;5031678;28;20026;-74
2023/06/30 02:34:42;;;;;;;16.00;10.70;;;17.70;99.90;;;;;;5013750;28;20037;-74
2023/06/30 02:37:08;;;;;;;14.95;10.30;;;17.60;99.90;;;;;;5024304;28;20805;-75
2023/06/30 02:39:33;;;;;;;14.50;10.15;;;17.40;99.90;;;;;;5050252;28;20407;-73
2023/06/30 02:41:59;;;;;;;15.38;10.27;;;17.30;99.90;;;;;;5047944;28;20026;-75
2023/06/30 02:44:25;;;;;;;13.88;10.40;;;17.30;99.90;;;;;;5031494;28;20084;-74
2023/06/30 02:46:50;;;;;;;15.10;10.48;;;17.30;99.90;;;;;;5026183;28;20470;-73
2023/06/30 02:49:16;;;;;;;13.13;9.52;;;17.20;99.90;;;;;;5018500;28;20048;-73
2023/06/30 02:51:42;;;;;;;13.13;9.95;;;17.20;99.90;;;;;;5032842;28;20044;-74
2023/06/30 02:54:07;;;;;;;19.35;10.38;;;17.30;99.90;;;;;;5030318;28;20021;-74
2023/06/30 02:56:33;;;;;;;17.10;10.43;;;17.30;99.90;;;;;;5030186;28;20411;-74
2023/06/30 02:58:59;;;;;;;16.50;10.02;;;17.50;99.90;;;;;;5030457;28;20052;-74
2023/06/30 03:01:24;;;;;;;14.82;10.35;;;17.50;99.90;;;;;;5022449;28;20793;-74
2023/06/30 03:03:52;;;;;;;15.52;10.55;;;17.50;99.90;;;;;;5048242;28;20492;-74
2023/06/30 03:06:19;;;;;;;13.90;10.23;;;17.50;99.90;;;;;;5031823;28;20053;-75
2023/06/30 03:08:45;;;;;;;14.88;10.13;;;17.40;99.90;;;;;;5046072;28;20437;-73
2023/06/30 03:11:11;;;;;;;14.48;10.13;;;17.40;99.90;;;;;;5029331;28;20038;-73
2023/06/30 03:13:37;;;;;;;14.60;10.32;;;17.50;99.90;;;;;;5025549;28;20029;-72
2023/06/30 03:16:03;;;;;;;16.80;10.80;;;17.60;99.90;;;;;;5016120;28;20070;-75
2023/06/30 03:18:29;;;;;;;16.10;10.70;;;17.60;99.90;;;;;;5011166;28;20018;-74
2023/06/30 03:20:55;;;;;;;14.77;9.82;;;17.60;99.90;;;;;;5018126;28;20073;-77
2023/06/30 03:23:20;;;;;;;14.68;10.50;;;17.60;99.90;;;;;;5027923;28;20046;-75
2023/06/30 03:25:46;;;;;;;17.73;11.25;;;17.60;99.90;;;;;;5017743;28;20068;-75
2023/06/30 03:28:12;;;;;;;16.90;10.52;;;17.50;99.90;;;;;;5011019;28;20033;-76
2023/06/30 03:30:37;;;;;;;19.40;10.77;;;17.60;99.90;;;;;;5010429;28;20030;-75
2023/06/30 03:33:03;;;;;;;15.35;9.48;;;17.50;99.90;;;;;;5010471;28;20464;-75
2023/06/30 03:35:29;;;;;;;20.38;10.90;;;17.50;99.90;;;;;;5010791;28;20452;-74
2023/06/30 03:37:55;;;;;;;15.00;9.63;;;17.50;99.90;;;;;;5022825;28;20029;-75
2023/06/30 03:40:20;;;;;;;18.00;10.30;;;17.40;99.90;;;;;;5028569;28;20501;-74
2023/06/30 03:42:46;;;;;;;13.63;9.93;;;17.40;99.90;;;;;;5012010;28;20029;-77
2023/06/30 03:45:12;;;;;;;15.23;10.05;;;17.40;99.90;;;;;;5029884;28;20053;-75
2023/06/30 03:47:38;;;;;;;13.07;9.73;;;17.40;99.90;;;;;;5030072;28;20072;-72
2023/06/30 03:50:03;;;;;;;18.60;10.68;;;17.50;99.90;;;;;;5028708;28;20477;-76
2023/06/30 03:52:29;;;;;;;17.83;10.65;;;17.50;99.90;;;;;;5012741;28;20116;-75
2023/06/30 03:54:55;;;;;;;16.52;11.05;;;17.60;99.90;;;;;;5028528;28;20034;-75
2023/06/30 03:57:20;;;;;;;16.45;10.35;;;17.60;99.90;;;;;;5026277;28;20117;-76
2023/06/30 03:59:46;;;;;;;14.68;10.27;;;17.70;99.90;;;;;;5013032;28;20501;-74
2023/06/30 04:02:12;;;;;;;15.20;10.35;;;17.60;99.90;;;;;;5027775;28;20037;-73
2023/06/30 04:04:38;;;;;;;15.60;11.45;;;17.70;99.90;;;;;;5015749;28;20018;-72
2023/06/30 04:07:04;;;;;;;16.60;11.00;;;17.70;99.90;;;;;;5027302;28;20091;-73
2023/06/30 04:09:29;;;;;;;18.23;10.82;;;17.60;99.90;;;;;;5029985;28;20472;-77
2023/06/30 04:11:55;;;;;;;15.80;10.02;;;17.60;99.90;;;;;;5028956;28;20117;-73
2023/06/30 04:14:21;;;;;;;16.20;10.23;;;17.50;99.90;;;;;;5029033;28;20084;-74
2023/06/30 04:16:47;;;;;;;14.82;10.43;;;17.50;99.90;;;;;;5031586;28;20399;-77
2023/06/30 04:19:12;;;;;;;14.75;10.57;;;17.60;99.90;;;;;;5049743;28;20064;-76
2023/06/30 04:21:38;;;;;;;14.13;10.00;;;17.50;99.90;;;;;;5049699;28;20049;-72
2023/06/30 04:24:04;;;;;;;20.35;11.05;;;17.50;99.90;;;;;;5039443;28;20033;-77
2023/06/30 04:26:31;;;;;;;18.30;11.07;;;17.60;99.90;;;;;;5024233;28;20045;-75
2023/06/30 04:28:57;;;;;;;15.18;10.38;;;17.60;99.90;;;;;;5009301;28;20396;-70
2023/06/30 04:31:22;;;;;;;14.48;10.88;;;17.70;99.90;;;;;;5031618;28;20021;-78
2023/06/30 04:33:49;;;;;;;14.82;10.77;;;17.60;99.90;;;;;;5048622;28;20486;-87
2023/06/30 04:36:17;;;;;;;15.07;10.80;;;17.70;99.90;;;;;;5044863;28;20033;-79
2023/06/30 04:38:44;;;;;;;16.40;11.10;;;17.60;99.90;;;;;;4991495;28;20503;-75
2023/06/30 04:41:10;;;;;;;16.30;11.20;;;17.60;99.90;;;;;;5009636;28;20042;-75
2023/06/30 04:43:35;;;;;;;16.00;11.15;;;17.50;99.90;;;;;;5017827;28;20032;-77
2023/06/30 04:46:01;;;;;;;18.17;11.35;;;17.60;99.90;;;;;;5026849;28;20302;-73
2023/06/30 04:48:27;;;;;;;18.55;11.63;;;17.60;99.90;;;;;;5029093;28;20038;-83
2023/06/30 04:50:53;;;;;;;14.20;10.73;;;17.60;99.90;;;;;;5021233;28;20041;-77
2023/06/30 04:53:18;;;;;;;18.00;10.95;;;17.70;99.90;;;;;;5029063;28;20068;-76
2023/06/30 04:55:44;;;;;;;18.27;11.18;;;17.80;99.90;;;;;;5021639;28;20108;-73
2023/06/30 04:58:10;;;;;;;16.60;12.18;;;17.80;99.90;;;;;;5028604;28;20163;-75
2023/06/30 05:00:35;;;;;;;18.02;12.38;;;17.90;99.90;;;;;;5036545;28;20040;-76
2023/06/30 05:03:02;;;;;;;17.70;12.52;;;17.80;99.90;;;;;;5018681;28;20033;-77
2023/06/30 05:05:28;;;;;;;17.17;11.38;;;17.80;99.90;;;;;;5028001;28;20364;-75
2023/06/30 05:07:53;;;;;;;16.25;11.45;;;17.80;99.90;;;;;;5022745;28;20039;-78
2023/06/30 05:10:19;;;;;;;19.40;12.38;;;17.80;99.90;;;;;;5014966;28;20120;-75
2023/06/30 05:12:45;;;;;;;16.90;11.85;;;17.80;99.90;;;;;;5010327;28;20055;-74
2023/06/30 05:15:10;;;;;;;15.75;11.45;;;17.80;99.90;;;;;;5028764;28;20052;-78
2023/06/30 05:17:37;;;;;;;19.05;11.70;;;17.90;99.90;;;;;;5037882;28;20064;-71
2023/06/30 05:20:05;;;;;;;16.70;11.75;;;18.00;99.90;;;;;;5045649;28;20724;-74
2023/06/30 05:22:31;;;;;;;18.40;12.95;;;18.20;99.90;;;;;;5048606;28;20033;-73
2023/06/30 05:24:57;;;;;;;24.13;12.60;;;18.30;99.90;;;;;;5048694;28;20025;-75
2023/06/30 05:27:22;;;;;;;16.55;12.13;;;18.20;99.90;;;;;;5033005;28;20111;-73
2023/06/30 05:29:48;;;;;;;18.38;12.73;;;18.30;99.90;;;;;;5034423;28;20060;-77
2023/06/30 05:32:13;;;;;;;16.65;12.38;;;18.30;99.90;;;;;;5033083;28;20022;-84
2023/06/30 05:34:42;;;;;;;19.35;12.18;;;18.30;99.90;;;;;;5015688;28;20479;-80
2023/06/30 05:37:07;;;;;;;18.02;12.07;;;18.20;99.90;;;;;;5022092;28;20068;-80
2023/06/30 05:39:33;;;;;;;17.02;11.88;;;18.20;99.90;;;;;;5014934;28;20057;-77
2023/06/30 05:41:58;;;;;;;16.98;12.40;;;18.30;99.90;;;;;;5011894;28;20108;-78
2023/06/30 05:44:24;;;;;;;21.13;12.68;;;18.50;99.90;;;;;;5027756;28;20032;-77
2023/06/30 05:46:50;;;;;;;18.58;12.45;;;18.60;99.90;;;;;;5031270;28;20049;-77
2023/06/30 05:49:15;;;;;;;22.23;12.43;;;18.70;99.90;;;;;;5039803;28;20045;-76
2023/06/30 05:51:41;;;;;;;17.92;12.80;;;18.80;99.90;;;;;;5045954;28;20421;-79
2023/06/30 05:54:06;;;;;;;22.15;12.73;;;18.70;99.90;;;;;;5043348;28;20029;-75
2023/06/30 05:56:32;;;;;;;18.33;13.57;;;18.60;99.90;;;;;;5022750;28;20088;-73
2023/06/30 05:58:58;;;;;;;19.33;12.95;;;18.60;99.90;;;;;;5012804;28;20126;-73
2023/06/30 06:01:24;;;;;;;20.55;12.80;;;18.60;99.90;;;;;;5019373;28;20057;-75
2023/06/30 06:03:49;;;;;;;22.45;13.07;;;18.80;99.90;;;;;;5034639;28;20757;-80
2023/06/30 06:06:15;;;;;;;22.40;13.80;;;19.00;99.90;;;;;;5034404;28;20116;-78
2023/06/30 06:08:46;;;;;;;23.27;14.52;;;18.90;99.90;;;;;;5032546;28;20426;-75
2023/06/30 06:11:12;;;;;;;23.55;14.10;;;18.70;99.90;;;;;;5031782;28;20040;-79
2023/06/30 06:13:38;;;;;;;21.40;14.63;;;18.70;99.90;;;;;;5032168;28;20076;-73
2023/06/30 06:16:06;;;;;;;22.15;15.60;;;18.70;99.90;;;;;;5026260;28;20038;-79
2023/06/30 06:18:32;;;;;;;21.42;13.75;;;18.80;99.90;;;;;;5012573;28;20109;-75
2023/06/30 06:20:58;;;;;;;27.48;15.25;;;18.90;99.90;;;;;;5011598;28;20105;-74
2023/06/30 06:23:24;;;;;;;30.40;14.95;;;19.00;99.90;;;;;;5012249;28;20028;-77
2023/06/30 06:25:50;;;;;;;21.25;13.68;;;19.20;99.90;;;;;;5017715;28;20132;-74
2023/06/30 06:28:19;;;;;;;25.67;15.00;;;19.30;99.90;;;;;;5018378;28;20113;-73
2023/06/30 06:30:45;;;;;;;22.38;13.45;;;19.50;99.90;;;;;;5031644;28;20037;-80
2023/06/30 06:33:11;;;;;;;22.70;14.25;;;19.50;99.90;;;;;;5031138;28;20040;-76
2023/06/30 06:35:36;;;;;;;23.95;14.75;;;19.60;99.90;;;;;;5022521;28;20022;-78
2023/06/30 06:38:02;;;;;;;22.25;13.93;;;19.60;99.90;;;;;;5035883;28;20090;-73
2023/06/30 06:40:28;;;;;;;22.73;14.63;;;19.70;99.90;;;;;;5038179;28;20113;-75
2023/06/30 06:42:55;;;;;;;23.48;14.07;;;19.70;99.90;;;;;;5012370;28;20480;-76
2023/06/30 06:45:21;;;;;;;23.42;13.75;;;19.80;99.90;;;;;;5013571;28;20053;-72
2023/06/30 06:48:21;;;;;;;22.02;13.15;;;19.80;99.90;;;;;;5037351;28;20340;-71
2023/06/30 06:50:57;;;;;;;32.22;13.80;;;19.90;99.90;;;;;;5030797;28;20049;-72
2023/06/30 06:53:28;;;;;;;29.80;14.05;;;19.90;99.90;;;;;;5029664;28;20041;-75
2023/06/30 06:55:55;;;;;;;23.48;13.13;;;19.90;99.90;;;;;;5030637;28;20029;-76
2023/06/30 06:58:22;;;;;;;26.63;13.77;;;20.00;99.90;;;;;;5042624;28;20056;-74
2023/06/30 07:00:49;;;;;;;22.83;13.70;;;20.00;99.90;;;;;;5032254;28;20022;-72
2023/06/30 07:03:16;;;;;;;23.88;13.32;;;20.10;99.90;;;;;;5027922;28;20022;-76
2023/06/30 07:05:43;;;;;;;19.70;13.13;;;20.00;99.90;;;;;;5031042;28;20375;-80
2023/06/30 07:08:10;;;;;;;21.77;13.10;;;20.00;99.90;;;;;;5040660;28;20080;-77
2023/06/30 07:10:36;;;;;;;20.48;13.30;;;20.10;99.90;;;;;;5020606;28;20204;-78
2023/06/30 07:13:03;;;;;;;23.25;13.45;;;20.20;99.90;;;;;;5014320;28;20467;-79
2023/06/30 07:15:29;;;;;;;24.00;12.32;;;20.20;99.90;;;;;;5030467;28;20026;-78
2023/06/30 07:17:55;;;;;;;21.48;12.23;;;20.20;99.90;;;;;;5025000;28;20091;-78
2023/06/30 07:20:22;;;;;;;21.42;12.70;;;20.30;99.90;;;;;;5015269;28;20087;-70
2023/06/30 07:22:47;;;;;;;21.58;13.55;;;20.40;99.90;;;;;;5029953;28;20541;-78
2023/06/30 07:25:13;;;;;;;20.80;12.73;;;20.20;99.90;;;;;;5010298;28;20038;-73
2023/06/30 07:27:39;;;;;;;28.00;12.75;;;20.20;99.90;;;;;;5029703;28;20021;-74
2023/06/30 07:30:06;;;;;;;19.55;12.57;;;20.20;99.90;;;;;;5029883;28;20059;-81
2023/06/30 07:32:35;;;;;;;22.13;13.00;;;20.20;99.90;;;;;;5029689;28;20031;-77
2023/06/30 07:35:02;;;;;;;23.48;12.13;;;20.00;99.90;;;;;;5025981;28;20032;-74
2023/06/30 07:37:28;;;;;;;20.23;12.23;;;19.90;99.90;;;;;;5028565;28;20029;-73
2023/06/30 07:39:54;;;;;;;19.50;11.95;;;19.90;99.90;;;;;;5014422;28;20037;-69
2023/06/30 07:42:19;;;;;;;20.35;11.52;;;19.80;99.90;;;;;;5010558;28;20021;-74
2023/06/30 07:44:45;;;;;;;17.30;11.80;;;19.70;99.90;;;;;;5027668;28;20033;-74
2023/06/30 07:47:10;;;;;;;18.25;12.02;;;19.70;99.90;;;;;;5028710;28;20646;-73
2023/06/30 07:49:37;;;;;;;20.33;11.82;;;19.70;99.90;;;;;;5034480;28;20116;-72
2023/06/30 07:52:02;;;;;;;21.55;12.02;;;19.60;99.90;;;;;;5029501;28;20021;-74
2023/06/30 07:54:28;;;;;;;20.50;12.60;;;19.60;99.90;;;;;;5022364;28;20033;-72
2023/06/30 07:56:54;;;;;;;22.67;12.90;;;19.50;99.90;;;;;;5010208;28;20127;-71
2023/06/30 07:59:19;;;;;;;25.13;13.70;;;19.40;99.90;;;;;;5027568;28;20484;-73
2023/06/30 08:01:45;;;;;;;21.40;12.95;;;19.30;99.90;;;;;;5030172;28;20030;-73
2023/06/30 08:04:11;;;;;;;21.40;13.25;;;19.20;99.90;;;;;;5029173;28;20033;-74
2023/06/30 08:06:37;;;;;;;22.15;12.93;;;19.00;99.90;;;;;;5029886;28;20029;-75
2023/06/30 08:09:02;;;;;;;47.72;14.27;;;18.90;99.90;;;;;;5016965;28;20044;-78
2023/06/30 08:11:29;;;;;;;29.38;13.85;;;18.90;99.90;;;;;;5011237;28;20034;-72
2023/06/30 08:13:56;;;;;;;32.58;15.57;;;18.70;99.90;;;;;;5029172;28;20218;-70
2023/06/30 08:16:21;;;;;;;30.25;14.98;;;18.50;99.90;;;;;;5028562;28;20575;-72
2023/06/30 08:18:48;;;;;;;26.98;15.80;;;18.40;99.90;;;;;;5026360;28;20022;-74
2023/06/30 08:21:16;;;;;;;26.13;16.45;;;18.20;99.90;;;;;;5009156;28;20181;-73
2023/06/30 08:23:42;;;;;;;31.70;15.88;;;18.00;99.90;;;;;;5010888;28;20026;-74
2023/06/30 08:26:08;;;;;;;27.55;17.45;;;17.90;99.90;;;;;;5023107;28;20030;-74
2023/06/30 08:28:33;;;;;;;29.25;17.85;;;17.80;99.90;;;;;;5034438;28;20025;-72
2023/06/30 08:30:59;;;;;;;29.30;18.60;;;17.70;99.90;;;;;;5028696;28;20376;-76
2023/06/30 08:33:32;;;;;;;33.95;19.63;;;17.50;99.90;;;;;;5027699;28;20467;-72
2023/06/30 08:35:59;;;;;;;33.58;20.58;;;17.50;99.90;;;;;;5009107;28;20036;-72
2023/06/30 08:38:28;;;;;;;31.00;19.38;;;17.50;99.90;;;;;;5009920;28;20030;-73
2023/06/30 08:40:53;;;;;;;33.55;19.00;;;17.50;99.90;;;;;;5013297;28;20034;-71
2023/06/30 08:43:22;;;;;;;31.20;19.23;;;17.50;99.90;;;;;;5013756;28;20060;-71
2023/06/30 08:45:52;;;;;;;34.28;20.50;;;17.50;99.90;;;;;;5018230;28;20058;-71
2023/06/30 08:48:20;;;;;;;33.95;19.83;;;17.60;99.90;;;;;;5008906;28;20025;-70
2023/06/30 08:50:46;;;;;;;33.63;19.73;;;17.70;99.90;;;;;;5009645;28;20495;-71
2023/06/30 08:53:23;;;;;;;32.88;20.70;;;17.80;99.90;;;;;;5008100;28;20034;-71
2023/06/30 08:55:50;;;;;;;36.50;20.13;;;17.80;99.90;;;;;;5011943;28;20489;-72
2023/06/30 08:58:16;;;;;;;33.05;19.95;;;17.80;99.90;;;;;;5003545;28;20081;-72
2023/06/30 09:00:42;;;;;;;32.25;19.90;;;17.90;99.90;;;;;;5022296;28;20504;-73
2023/06/30 09:03:08;;;;;;;35.35;20.95;;;17.90;99.90;;;;;;5009483;28;20487;-75
2023/06/30 09:05:37;;;;;;;35.53;21.85;;;17.90;99.90;;;;;;5010373;28;20112;-75
2023/06/30 09:08:10;;;;;;;31.75;21.35;;;18.00;99.90;;;;;;5033771;28;20025;-72
2023/06/30 09:10:37;;;;;;;35.92;21.70;;;18.00;99.90;;;;;;5030659;28;20033;-72
2023/06/30 09:13:06;;;;;;;33.65;22.00;;;18.10;99.90;;;;;;5011560;28;20045;-71
2023/06/30 09:15:33;;;;;;;35.47;22.65;;;18.00;99.90;;;;;;5012915;28;20042;-71
2023/06/30 09:17:59;;;;;;;38.63;23.20;;;18.10;99.90;;;;;;5008783;28;20181;-71
2023/06/30 09:20:24;;;;;;;35.80;21.65;;;18.10;99.90;;;;;;5009011;28;20057;-75
2023/06/30 09:22:52;;;;;;;36.08;21.63;;;18.00;99.90;;;;;;5013047;28;20053;-71
2023/06/30 09:25:32;;;;;;;40.70;21.90;;;18.00;99.90;;;;;;5037663;28;20214;-71
2023/06/30 09:27:58;;;;;;;;;;;18.00;99.90;;;;;;5048992;28;20089;-75
2023/06/30 09:30:35;;;;;;;35.35;21.63;;;18.00;99.90;;;;;;5048543;28;19963;-72
2023/06/30 09:33:07;;;;;;;33.28;19.70;;;18.00;99.90;;;;;;5025508;28;20045;-71
2023/06/30 09:35:40;;;;;;;38.95;20.70;;;18.00;99.90;;;;;;5022202;28;20463;-72
2023/06/30 09:38:10;;;;;;;39.72;20.17;;;17.90;99.90;;;;;;5008384;28;20046;-74
2023/06/30 09:40:36;;;;;;;35.03;19.52;;;17.90;99.90;;;;;;5009155;28;20034;-71
2023/06/30 09:43:02;;;;;;;33.65;20.05;;;17.90;99.90;;;;;;5010289;28;20033;-71
2023/06/30 09:45:27;;;;;;;38.25;20.63;;;18.00;99.90;;;;;;5009196;28;20500;-71
2023/06/30 09:47:54;;;;;;;34.78;20.20;;;18.00;99.90;;;;;;5048714;28;20074;-72
2023/06/30 09:50:29;;;;;;;36.00;19.70;;;17.90;99.90;;;;;;5039053;28;20053;-71
2023/06/30 09:52:58;;;;;;;35.47;20.88;;;17.90;99.90;;;;;;5028808;28;20082;-71
2023/06/30 09:55:24;;;;;;;34.88;20.23;;;18.00;99.90;;;;;;5025912;28;20053;-73
2023/06/30 09:57:53;;;;;;;35.53;20.83;;;18.00;99.90;;;;;;5028369;28;20554;-74
2023/06/30 10:00:19;;;;;;;35.72;20.42;;;18.00;99.90;;;;;;5026000;28;20061;-70
2023/06/30 10:02:46;;;;;;;34.35;21.33;;;18.00;99.90;;;;;;5037862;28;20139;-75
2023/06/30 10:05:12;;;;;;;34.97;21.27;;;18.10;99.90;;;;;;5040834;28;20021;-71
2023/06/30 10:07:41;;;;;;;34.67;20.88;;;18.10;99.90;;;;;;5028619;28;20029;-72
2023/06/30 10:10:12;;;;;;;36.72;21.25;;;18.10;99.90;;;;;;5021222;28;20038;-71
2023/06/30 10:12:41;;;;;;;36.95;21.77;;;18.10;99.90;;;;;;5049887;28;20052;-72
2023/06/30 10:15:09;;;;;;;37.33;20.73;;;18.20;99.90;;;;;;5031208;28;20033;-73
2023/06/30 10:17:37;;;;;;;35.70;21.10;;;18.20;99.90;;;;;;5031191;28;20100;-72
2023/06/30 10:20:07;;;;;;;37.70;22.13;;;18.30;99.90;;;;;;5031662;28;20033;-72
2023/06/30 10:22:34;;;;;;;35.13;21.73;;;18.40;99.90;;;;;;5033278;28;20064;-71
2023/06/30 10:25:01;;;;;;;38.00;22.13;;;18.40;99.90;;;;;;5052000;28;20064;-72
2023/06/30 10:27:27;;;;;;;36.20;21.67;;;18.40;99.90;;;;;;5051123;28;20099;-72
2023/06/30 10:29:57;;;;;;;40.30;23.08;;;18.40;99.90;;;;;;5014120;28;20060;-72
2023/06/30 10:32:23;;;;;;;35.67;21.23;;;18.50;99.90;;;;;;5000334;28;20646;-72
2023/06/30 10:34:49;;;;;;;35.47;21.83;;;18.50;99.90;;;;;;5027003;28;20026;-73
2023/06/30 10:37:15;;;;;;;35.45;22.00;;;18.60;99.90;;;;;;5016188;28;20034;-74
2023/06/30 10:39:43;;;;;;;38.95;23.05;;;18.50;99.90;;;;;;5025164;28;20045;-71
2023/06/30 10:42:11;;;;;;;37.42;22.90;;;18.60;99.90;;;;;;5011076;28;20472;-71
2023/06/30 10:44:38;;;;;;;36.60;21.95;;;18.60;99.90;;;;;;5034505;28;20022;-71
2023/06/30 10:47:04;;;;;;;35.65;21.30;;;18.70;99.90;;;;;;5019026;28;20078;-71
2023/06/30 10:49:37;;;;;;;37.53;22.60;;;18.80;99.90;;;;;;5011531;28;20076;-71
2023/06/30 10:52:07;;;;;;;34.75;22.33;;;18.80;99.90;;;;;;5030639;28;20053;-71
2023/06/30 10:54:48;;;;;;;38.13;22.88;;;18.90;99.90;;;;;;5051626;28;20083;-71
2023/06/30 10:57:28;;;;;;;37.97;23.00;;;19.00;99.90;;;;;;5050450;28;20025;-71
2023/06/30 11:00:11;;;;;;;37.38;23.15;;;18.90;99.90;;;;;;5051179;28;20036;-73
2023/06/30 11:02:57;;;;;;;37.00;22.98;;;18.90;99.90;;;;;;5033920;28;20464;-71
2023/06/30 11:05:30;;;;;;;37.10;22.88;;;18.80;99.90;;;;;;5013380;28;20223;-72
2023/06/30 11:08:03;;;;;;;36.03;21.98;;;18.80;99.90;;;;;;5018937;28;20095;-72
2023/06/30 11:10:32;;;;;;;38.88;23.50;;;18.70;99.90;;;;;;5030411;28;20034;-72
2023/06/30 11:12:59;;;;;;;38.78;23.65;;;18.70;99.90;;;;;;5030977;28;20037;-71
2023/06/30 11:15:33;;;;;;;35.63;23.13;;;18.70;99.90;;;;;;5021528;28;20637;-72
2023/06/30 11:18:00;;;;;;;42.75;24.77;;;18.70;99.90;;;;;;5034081;28;20033;-71
2023/06/30 11:20:26;;;;;;;33.97;21.15;;;18.80;99.90;;;;;;5024913;28;20038;-73
2023/06/30 11:23:03;;;;;;;37.53;22.95;;;18.90;99.90;;;;;;5015513;28;20105;-72
2023/06/30 11:25:30;;;;;;;41.00;24.45;;;19.00;99.90;;;;;;5016937;28;20037;-73
2023/06/30 11:27:57;;;;;;;40.28;23.45;;;19.10;99.90;;;;;;5030237;28;20034;-73
2023/06/30 11:30:23;;;;;;;39.25;23.67;;;19.10;99.90;;;;;;5031481;28;20032;-72
2023/06/30 11:32:56;;;;;;;44.47;24.52;;;19.10;99.90;;;;;;5028653;28;20506;-71
2023/06/30 11:35:22;;;;;;;41.45;23.13;;;19.20;99.90;;;;;;5029981;28;20033;-71
2023/06/30 11:37:49;;;;;;;38.45;24.73;;;19.30;99.90;;;;;;5022897;28;20110;-73
2023/06/30 11:40:15;;;;;;;42.47;23.33;;;19.50;99.90;;;;;;5020896;28;20529;-71
2023/06/30 11:42:42;;;;;;;42.67;24.90;;;19.60;99.90;;;;;;5029830;28;20425;-72
2023/06/30 11:45:08;;;;;;;38.00;22.15;;;19.80;99.90;;;;;;5030788;28;20140;-72
2023/06/30 11:47:35;;;;;;;38.60;23.25;;;19.90;99.90;;;;;;5018437;28;20043;-72
2023/06/30 11:50:08;;;;;;;32.40;19.80;;;19.90;99.90;;;;;;5011389;28;20071;-71
2023/06/30 11:52:38;;;;;;;39.88;22.00;;;19.80;99.90;;;;;;5010488;28;20769;-71
2023/06/30 11:55:13;;;;;;;40.30;23.87;;;19.90;99.90;;;;;;5013828;28;20018;-72
2023/06/30 11:57:41;;;;;;;47.30;24.60;;;20.00;99.90;;;;;;5019190;28;20499;-72
2023/06/30 12:00:11;;;;;;;45.03;24.85;;;20.00;99.90;;;;;;5023632;28;20054;-72
2023/06/30 12:02:41;;;;;;;41.17;24.02;;;20.10;99.90;;;;;;5050250;28;20147;-73
2023/06/30 12:05:23;;;;;;;45.40;24.65;;;20.00;99.90;;;;;;5030559;28;20025;-72
2023/06/30 12:07:50;;;;;;;47.72;25.10;;;19.80;99.90;;;;;;5035336;28;20084;-74
2023/06/30 12:10:16;;;;;;;40.45;23.92;;;19.80;99.90;;;;;;5021091;28;20037;-72
2023/06/30 12:12:42;;;;;;;43.15;23.50;;;19.90;99.90;;;;;;5029517;28;20033;-73
2023/06/30 12:15:11;;;;;;;42.22;23.77;;;19.80;99.90;;;;;;5028181;28;20025;-75
2023/06/30 12:17:44;;;;;;;42.47;23.73;;;19.70;99.90;;;;;;5025118;28;20379;-72
2023/06/30 12:20:11;;;;;;;43.88;24.30;;;19.80;99.90;;;;;;5032336;28;20029;-73
2023/06/30 12:22:46;;;;;;;40.05;22.85;;;19.70;99.90;;;;;;5049495;28;20021;-72
2023/06/30 12:25:14;;;;;;;44.70;24.63;;;19.60;99.90;;;;;;5033526;28;20034;-71
2023/06/30 12:27:43;;;;;;;42.42;24.42;;;19.80;99.90;;;;;;5029048;28;20932;-72
2023/06/30 12:30:16;;;;;;;42.08;25.65;;;19.80;99.90;;;;;;5022948;28;20517;-72